createdAt,value
2022-07-25T00:01:33.248Z,5.90
2022-07-25T00:03:59.733Z,6.90
2022-07-25T00:06:26.594Z,10.50
2022-07-25T00:08:53.027Z,11.10
2022-07-25T00:11:19.556Z,5.40
2022-07-25T00:13:46.483Z,6.60
2022-07-25T00:16:13.114Z,7.20
2022-07-25T00:18:39.697Z,10.10
2022-07-25T00:21:06.438Z,7.10
2022-07-25T00:23:33.439Z,8.20
2022-07-25T00:26:01.317Z,12.30
2022-07-25T00:28:27.794Z,8.20
2022-07-25T00:30:55.311Z,8.40
2022-07-25T00:33:21.826Z,12.50
2022-07-25T00:35:48.200Z,9.80
2022-07-25T00:38:14.623Z,9.40
2022-07-25T00:40:41.238Z,7.40
2022-07-25T00:43:07.813Z,7.10
2022-07-25T00:45:34.257Z,9.50
2022-07-25T00:48:00.705Z,11.20
2022-07-25T00:50:27.152Z,10.00
2022-07-25T00:52:54.561Z,7.10
2022-07-25T00:55:23.902Z,9.30
2022-07-25T00:57:51.156Z,8.10
2022-07-25T01:00:18.132Z,8.00
2022-07-25T01:02:44.913Z,8.80
2022-07-25T01:05:11.845Z,9.00
2022-07-25T01:07:39.280Z,7.00
2022-07-25T01:10:07.675Z,8.10
2022-07-25T01:12:54.753Z,6.00
2022-07-25T01:15:23.741Z,10.10
2022-07-25T01:17:50.882Z,8.60
2022-07-25T01:20:25.339Z,6.70
2022-07-25T01:22:52.736Z,7.70
2022-07-25T01:25:19.251Z,6.20
2022-07-25T01:27:51.411Z,6.60
2022-07-25T01:30:23.979Z,5.30
2022-07-25T01:32:50.721Z,7.90
2022-07-25T01:35:17.387Z,6.10
2022-07-25T01:37:45.826Z,5.90
2022-07-25T01:40:13.300Z,7.20
2022-07-25T01:42:40.034Z,5.80
2022-07-25T01:45:08.740Z,7.70
2022-07-25T01:47:35.238Z,8.00
2022-07-25T01:50:01.898Z,5.10
2022-07-25T01:52:28.771Z,5.50
2022-07-25T01:54:55.303Z,7.20
2022-07-25T01:57:23.094Z,6.40
2022-07-25T01:59:59.180Z,4.70
2022-07-25T02:02:26.249Z,4.50
2022-07-25T02:04:53.174Z,6.10
2022-07-25T02:07:19.778Z,8.10
2022-07-25T02:09:46.629Z,5.50
2022-07-25T02:12:13.101Z,5.90
2022-07-25T02:14:40.292Z,11.00
2022-07-25T02:17:07.138Z,9.60
2022-07-25T02:19:33.744Z,8.90
2022-07-25T02:22:00.222Z,10.60
2022-07-25T02:24:26.812Z,5.90
2022-07-25T02:26:53.256Z,8.40
2022-07-25T02:29:21.876Z,7.20
2022-07-25T02:31:49.192Z,5.40
2022-07-25T02:34:15.639Z,6.50
2022-07-25T02:36:45.259Z,8.10
2022-07-25T02:39:11.906Z,6.30
2022-07-25T02:41:38.366Z,13.00
2022-07-25T02:44:06.080Z,6.80
2022-07-25T02:46:33.045Z,5.80
2022-07-25T02:49:00.125Z,8.00
2022-07-25T02:51:26.531Z,7.60
2022-07-25T02:53:58.193Z,10.50
2022-07-25T02:56:29.945Z,7.60
2022-07-25T02:58:59.414Z,10.90
2022-07-25T03:01:26.436Z,7.20
2022-07-25T03:03:53.060Z,8.60
2022-07-25T03:06:19.692Z,8.50
2022-07-25T03:08:47.402Z,7.40
2022-07-25T03:11:14.051Z,9.70
2022-07-25T03:13:40.499Z,7.70
2022-07-25T03:16:07.624Z,6.00
2022-07-25T03:18:34.051Z,7.60
2022-07-25T03:21:02.075Z,8.90
2022-07-25T03:23:30.442Z,7.80
2022-07-25T03:25:57.423Z,9.00
2022-07-25T03:28:24.782Z,6.00
2022-07-25T03:30:52.376Z,9.10
2022-07-25T03:33:19.147Z,8.80
2022-07-25T03:35:45.742Z,7.10
2022-07-25T03:38:12.202Z,6.80
2022-07-25T03:40:38.965Z,7.70
2022-07-25T03:43:05.790Z,7.10
2022-07-25T03:45:32.302Z,7.80
2022-07-25T03:47:58.852Z,6.30
2022-07-25T03:50:25.270Z,7.60
2022-07-25T03:52:51.784Z,8.30
2022-07-25T03:55:18.747Z,9.60
2022-07-25T03:57:45.520Z,8.30
2022-07-25T04:00:12.403Z,8.20
2022-07-25T04:02:39.489Z,7.10
2022-07-25T04:05:07.693Z,4.90
2022-07-25T04:07:35.114Z,6.60
2022-07-25T04:10:01.806Z,7.00
2022-07-25T04:12:28.346Z,11.60
2022-07-25T04:14:54.836Z,8.60
2022-07-25T04:17:21.530Z,7.00
2022-07-25T04:19:48.036Z,6.80
2022-07-25T04:22:16.275Z,7.90
2022-07-25T04:24:43.357Z,13.70
2022-07-25T04:27:09.801Z,10.50
2022-07-25T04:29:36.865Z,9.00
2022-07-25T04:32:03.676Z,7.00
2022-07-25T04:34:30.606Z,10.70
2022-07-25T04:36:57.427Z,7.00
2022-07-25T04:39:23.979Z,8.60
2022-07-25T04:41:50.968Z,8.60
2022-07-25T04:44:17.341Z,9.40
2022-07-25T04:46:43.952Z,7.30
2022-07-25T04:49:10.930Z,9.90
2022-07-25T04:51:37.491Z,11.50
2022-07-25T04:54:04.583Z,7.80
2022-07-25T04:56:31.402Z,9.50
2022-07-25T04:59:00.586Z,10.80
2022-07-25T05:01:29.734Z,12.00
2022-07-25T05:03:56.302Z,9.70
2022-07-25T05:06:25.964Z,7.80
2022-07-25T05:08:52.412Z,9.50
2022-07-25T05:11:19.249Z,11.00
2022-07-25T05:13:45.630Z,12.20
2022-07-25T05:16:12.291Z,11.40
2022-07-25T05:18:38.742Z,10.20
2022-07-25T05:21:05.112Z,7.30
2022-07-25T05:23:32.014Z,5.40
2022-07-25T05:25:58.463Z,4.80
2022-07-25T05:28:24.891Z,7.70
2022-07-25T05:30:51.417Z,6.60
2022-07-25T05:33:18.283Z,8.60
2022-07-25T05:35:46.322Z,8.40
2022-07-25T05:38:12.739Z,9.00
2022-07-25T05:40:39.209Z,11.60
2022-07-25T05:43:05.661Z,8.90
2022-07-25T05:45:32.236Z,9.20
2022-07-25T05:47:58.687Z,6.80
2022-07-25T05:50:25.144Z,3.60
2022-07-25T05:52:52.053Z,8.60
2022-07-25T05:55:19.226Z,4.80
2022-07-25T05:57:46.063Z,4.90
2022-07-25T06:00:13.009Z,5.90
2022-07-25T06:02:39.586Z,6.40
2022-07-25T06:05:06.334Z,1.80
2022-07-25T06:07:32.829Z,5.60
2022-07-25T06:09:59.343Z,1.70
2022-07-25T06:12:25.839Z,3.00
2022-07-25T06:14:52.704Z,1.80
2022-07-25T06:17:20.167Z,2.10
2022-07-25T06:19:46.801Z,3.60
2022-07-25T06:22:13.335Z,3.40
2022-07-25T06:24:41.284Z,1.60
2022-07-25T06:27:08.742Z,2.50
2022-07-25T06:29:35.258Z,4.40
2022-07-25T06:32:01.931Z,1.90
2022-07-25T06:34:29.960Z,4.50
2022-07-25T06:36:57.243Z,4.30
2022-07-25T06:39:25.203Z,2.10
2022-07-25T06:41:51.766Z,1.40
2022-07-25T06:44:18.477Z,4.60
2022-07-25T06:46:45.093Z,3.50
2022-07-25T06:49:11.712Z,3.50
2022-07-25T06:51:38.381Z,5.90
2022-07-25T06:54:05.021Z,2.60
2022-07-25T06:56:32.495Z,3.10
2022-07-25T06:58:59.837Z,4.20
2022-07-25T07:01:27.360Z,2.90
2022-07-25T07:03:54.019Z,2.30
2022-07-25T07:06:20.556Z,3.90
2022-07-25T07:08:48.306Z,1.90
2022-07-25T07:11:16.224Z,2.40
2022-07-25T07:13:42.896Z,1.20
2022-07-25T07:16:09.640Z,1.50
2022-07-25T07:18:37.223Z,1.50
2022-07-25T07:21:05.208Z,1.50
2022-07-25T07:23:33.004Z,5.10
2022-07-25T07:25:59.777Z,2.40
2022-07-25T07:28:26.480Z,1.50
2022-07-25T07:31:15.330Z,2.60
2022-07-25T07:33:39.787Z,1.20
2022-07-25T07:36:06.592Z,1.20
2022-07-25T07:38:33.995Z,3.30
2022-07-25T07:41:00.501Z,3.40
2022-07-25T07:43:30.365Z,1.50
2022-07-25T07:46:01.609Z,1.50
2022-07-25T07:48:30.402Z,2.30
2022-07-25T07:50:57.638Z,2.20
2022-07-25T07:53:44.147Z,3.10
2022-07-25T07:56:11.637Z,2.60
2022-07-25T07:58:44.810Z,2.20
2022-07-25T08:01:23.784Z,1.50
2022-07-25T08:03:52.818Z,3.40
2022-07-25T08:06:19.377Z,3.50
2022-07-25T08:08:45.973Z,3.70
2022-07-25T08:11:14.034Z,1.70
2022-07-25T08:13:40.536Z,4.20
2022-07-25T08:16:08.202Z,2.50
2022-07-25T08:18:34.732Z,2.30
2022-07-25T08:21:05.512Z,2.40
2022-07-25T08:23:34.824Z,4.40
2022-07-25T08:26:01.882Z,2.20
2022-07-25T08:28:28.429Z,7.80
2022-07-25T08:30:54.951Z,5.80
2022-07-25T08:33:21.842Z,2.70
2022-07-25T08:35:54.191Z,3.30
2022-07-25T08:38:23.299Z,5.50
2022-07-25T08:40:50.567Z,3.30
2022-07-25T08:43:18.247Z,4.20
2022-07-25T08:45:50.150Z,4.20
2022-07-25T08:48:19.485Z,5.40
2022-07-25T08:50:50.584Z,2.70
2022-07-25T08:53:35.763Z,1.80
2022-07-25T08:56:13.342Z,6.30
2022-07-25T08:58:43.786Z,2.50
2022-07-25T09:01:12.152Z,2.50
2022-07-25T09:03:40.903Z,2.40
2022-07-25T09:06:17.074Z,1.20
2022-07-25T09:08:59.783Z,3.90
2022-07-25T09:11:37.030Z,3.10
2022-07-25T09:14:13.187Z,2.00
2022-07-25T09:16:44.323Z,1.60
2022-07-25T09:19:16.139Z,3.40
2022-07-25T09:21:45.700Z,1.90
2022-07-25T09:24:16.626Z,3.00
2022-07-25T09:26:49.257Z,3.20
2022-07-25T09:29:22.019Z,2.10
2022-07-25T09:31:49.403Z,2.00
2022-07-25T09:34:44.073Z,2.80
2022-07-25T09:37:16.187Z,2.50
2022-07-25T09:39:47.151Z,3.00
2022-07-25T09:42:27.534Z,3.50
2022-07-25T09:45:02.367Z,2.60
2022-07-25T09:47:30.344Z,4.00
2022-07-25T09:49:57.228Z,2.20
2022-07-25T09:52:23.752Z,5.40
2022-07-25T09:54:50.819Z,3.40
2022-07-25T09:57:17.356Z,2.40
2022-07-25T09:59:44.382Z,6.20
2022-07-25T10:02:34.399Z,3.20
2022-07-25T10:05:18.191Z,2.90
2022-07-25T10:07:48.787Z,3.40
2022-07-25T10:10:26.323Z,3.40
2022-07-25T10:13:10.284Z,2.50
2022-07-25T10:15:48.436Z,2.40
2022-07-25T10:18:17.983Z,2.90
2022-07-25T10:20:46.081Z,3.40
2022-07-25T10:23:27.083Z,2.00
2022-07-25T10:26:09.112Z,1.50
2022-07-25T10:28:47.000Z,2.70
2022-07-25T10:31:18.023Z,1.70
2022-07-25T10:33:51.829Z,2.60
2022-07-25T10:36:20.691Z,2.30
2022-07-25T10:38:50.208Z,3.10
2022-07-25T10:41:16.874Z,3.30
2022-07-25T10:43:48.711Z,4.10
2022-07-25T10:46:22.632Z,2.00
2022-07-25T10:49:03.663Z,1.70
2022-07-25T10:51:56.072Z,3.70
2022-07-25T10:54:22.587Z,3.90
2022-07-25T10:56:58.179Z,3.90
2022-07-25T10:59:28.003Z,6.40
2022-07-25T11:01:54.961Z,1.70
2022-07-25T11:04:23.282Z,2.70
2022-07-25T11:06:49.965Z,4.90
2022-07-25T11:09:26.873Z,2.20
2022-07-25T11:11:56.911Z,2.70
2022-07-25T11:14:32.827Z,2.40
2022-07-25T11:17:19.622Z,3.10
2022-07-25T11:20:20.843Z,1.50
2022-07-25T11:22:55.213Z,2.90
2022-07-25T11:25:22.813Z,2.70
2022-07-25T11:27:56.669Z,3.50
2022-07-25T11:30:23.953Z,2.80
2022-07-25T11:32:55.536Z,2.10
2022-07-25T11:35:28.746Z,1.30
2022-07-25T11:37:56.623Z,2.00
2022-07-25T11:40:25.202Z,2.60
2022-07-25T11:42:53.886Z,1.40
2022-07-25T11:45:30.498Z,1.90
2022-07-25T11:48:07.041Z,2.00
2022-07-25T11:50:36.609Z,1.40
2022-07-25T11:53:10.834Z,2.30
2022-07-25T11:55:46.535Z,2.30
2022-07-25T11:58:14.021Z,2.40
2022-07-25T12:00:46.253Z,2.10
2022-07-25T12:03:19.606Z,4.40
2022-07-25T12:05:49.652Z,1.60
2022-07-25T12:08:22.668Z,4.50
2022-07-25T12:13:27.189Z,2.70
2022-07-25T12:15:56.690Z,2.10
2022-07-25T12:18:23.562Z,3.00
2022-07-25T12:20:50.390Z,5.50
2022-07-25T12:23:16.910Z,3.30
2022-07-25T12:25:45.639Z,1.20
2022-07-25T12:28:13.341Z,1.70
2022-07-25T12:30:41.888Z,1.60
2022-07-25T12:33:11.372Z,3.00
2022-07-25T12:35:39.910Z,2.60
2022-07-25T12:38:07.553Z,1.50
2022-07-25T12:40:34.095Z,2.80
2022-07-25T12:43:00.639Z,4.90
2022-07-25T12:45:27.699Z,2.10
2022-07-25T12:47:55.010Z,4.20
2022-07-25T12:50:25.101Z,4.00
2022-07-25T12:52:51.913Z,1.90
2022-07-25T12:55:19.471Z,3.50
2022-07-25T12:57:50.309Z,2.20
2022-07-25T13:00:19.995Z,4.60
2022-07-25T13:02:48.459Z,3.20
2022-07-25T13:05:15.435Z,1.70
2022-07-25T13:07:42.120Z,3.10
2022-07-25T13:10:09.785Z,1.60
2022-07-25T13:12:36.759Z,2.00
2022-07-25T13:15:03.728Z,1.50
2022-07-25T13:17:32.336Z,1.70
2022-07-25T13:19:59.630Z,1.20
2022-07-25T13:22:27.493Z,3.20
2022-07-25T13:24:55.181Z,4.50
2022-07-25T13:27:23.302Z,1.40
2022-07-25T13:29:53.554Z,1.70
2022-07-25T13:32:20.657Z,3.00
2022-07-25T13:34:47.125Z,2.50
2022-07-25T13:37:14.004Z,2.50
2022-07-25T13:39:41.833Z,1.70
2022-07-25T13:42:08.714Z,1.30
2022-07-25T13:44:35.744Z,1.80
2022-07-25T13:47:02.335Z,2.90
2022-07-25T13:49:30.819Z,5.00
2022-07-25T13:51:57.315Z,2.30
2022-07-25T13:54:23.741Z,1.40
2022-07-25T13:56:50.170Z,4.10
2022-07-25T13:59:21.180Z,3.30
2022-07-25T14:01:50.573Z,2.10
2022-07-25T14:04:17.274Z,2.10
2022-07-25T14:06:43.877Z,1.40
2022-07-25T14:09:11.165Z,2.50
2022-07-25T14:11:38.072Z,2.50
2022-07-25T14:14:04.543Z,1.40
2022-07-25T14:16:33.176Z,4.30
2022-07-25T14:19:00.701Z,1.50
2022-07-25T14:21:28.485Z,2.40
2022-07-25T14:23:55.987Z,3.60
2022-07-25T14:26:22.494Z,3.10
2022-07-25T14:28:49.384Z,4.80
2022-07-25T14:31:16.853Z,4.10
2022-07-25T14:33:43.285Z,1.20
2022-07-25T14:36:10.661Z,3.10
2022-07-25T14:38:37.143Z,2.70
2022-07-25T14:41:06.684Z,1.90
2022-07-25T14:43:37.566Z,4.00
2022-07-25T14:46:04.828Z,1.80
2022-07-25T14:48:31.437Z,2.80
2022-07-25T14:50:57.927Z,2.90
2022-07-25T14:53:24.419Z,2.20
2022-07-25T14:55:50.900Z,3.10
2022-07-25T14:58:17.847Z,6.50
2022-07-25T15:00:45.498Z,1.80
2022-07-25T15:03:12.182Z,1.80
2022-07-25T15:05:40.584Z,1.70
2022-07-25T15:08:07.599Z,2.00
2022-07-25T15:10:34.583Z,2.40
2022-07-25T15:13:28.685Z,5.30
2022-07-25T15:15:49.508Z,2.10
2022-07-25T15:18:15.948Z,3.30
2022-07-25T15:20:43.610Z,10.30
2022-07-25T15:23:11.438Z,2.70
2022-07-25T15:26:01.051Z,1.30
2022-07-25T15:28:25.374Z,1.70
2022-07-25T15:30:51.858Z,8.20
2022-07-25T15:33:18.824Z,1.50
2022-07-25T15:35:46.586Z,1.90
2022-07-25T15:38:15.038Z,4.20
2022-07-25T15:40:45.230Z,4.30
2022-07-25T15:43:12.010Z,1.90
2022-07-25T15:45:40.257Z,3.20
2022-07-25T15:48:08.678Z,2.60
2022-07-25T15:50:36.385Z,5.40
2022-07-25T15:53:04.466Z,2.40
2022-07-25T15:55:32.830Z,2.70
2022-07-25T15:58:00.081Z,2.00
2022-07-25T16:00:29.826Z,2.00
2022-07-25T16:02:58.034Z,2.90
2022-07-25T16:05:25.038Z,2.10
2022-07-25T16:07:52.319Z,2.50
2022-07-25T16:10:18.835Z,2.70
2022-07-25T16:12:45.423Z,2.70
2022-07-25T16:15:12.147Z,2.30
2022-07-25T16:17:38.577Z,3.30
2022-07-25T16:20:08.612Z,1.60
2022-07-25T16:22:35.507Z,2.70
2022-07-25T16:25:03.660Z,5.70
2022-07-25T16:27:30.289Z,2.10
2022-07-25T16:29:56.881Z,5.20
2022-07-25T16:32:23.592Z,1.60
2022-07-25T16:34:50.025Z,2.80
2022-07-25T16:37:19.707Z,2.40
2022-07-25T16:39:46.221Z,1.90
2022-07-25T16:42:12.766Z,3.00
2022-07-25T16:44:39.252Z,1.70
2022-07-25T16:47:07.636Z,3.20
2022-07-25T16:49:34.308Z,3.20
2022-07-25T16:52:00.824Z,3.70
2022-07-25T16:54:27.786Z,4.40
2022-07-25T16:56:57.274Z,3.20
2022-07-25T16:59:26.717Z,3.90
2022-07-25T17:01:53.302Z,1.70
2022-07-25T17:04:19.980Z,2.70
2022-07-25T17:06:46.732Z,6.20
2022-07-25T17:09:13.806Z,5.90
2022-07-25T17:11:40.607Z,8.80
2022-07-25T17:14:07.501Z,6.20
2022-07-25T17:16:34.519Z,3.20
2022-07-25T17:19:03.419Z,3.70
2022-07-25T17:21:30.299Z,5.00
2022-07-25T17:23:56.784Z,2.90
2022-07-25T17:26:23.380Z,5.00
2022-07-25T17:28:50.475Z,2.60
2022-07-25T17:31:18.355Z,4.50
2022-07-25T17:33:44.868Z,3.10
2022-07-25T17:36:11.498Z,2.70
2022-07-25T17:38:42.487Z,5.30
2022-07-25T17:41:13.073Z,3.70
2022-07-25T17:43:40.847Z,3.50
2022-07-25T17:46:10.519Z,3.30
2022-07-25T17:48:37.047Z,3.10
2022-07-25T17:51:05.574Z,11.80
2022-07-25T17:53:32.539Z,7.00
2022-07-25T17:55:59.020Z,4.30
2022-07-25T17:58:25.515Z,4.80
2022-07-25T18:00:51.921Z,6.70
2022-07-25T18:03:18.568Z,5.30
2022-07-25T18:05:45.101Z,12.30
2022-07-25T18:08:11.519Z,6.00
2022-07-25T18:10:38.185Z,8.00
2022-07-25T18:13:04.754Z,6.30
2022-07-25T18:15:31.707Z,11.10
2022-07-25T18:17:58.791Z,8.40
2022-07-25T18:20:27.425Z,3.90
2022-07-25T18:22:58.011Z,10.50
2022-07-25T18:25:24.461Z,6.40
2022-07-25T18:27:50.932Z,7.10
2022-07-25T18:30:18.689Z,5.80
2022-07-25T18:32:45.298Z,11.40
2022-07-25T18:35:12.847Z,8.30
2022-07-25T18:37:39.420Z,11.40
2022-07-25T18:40:07.487Z,7.60
2022-07-25T18:42:35.401Z,7.50
2022-07-25T18:45:04.332Z,8.40
2022-07-25T18:47:34.476Z,5.90
2022-07-25T18:50:03.220Z,6.60
2022-07-25T18:52:34.469Z,2.80
2022-07-25T18:55:08.412Z,3.00
2022-07-25T18:57:37.003Z,2.70
2022-07-25T19:00:07.068Z,4.40
2022-07-25T19:02:34.341Z,6.10
2022-07-25T19:05:01.314Z,9.20
2022-07-25T19:07:30.582Z,6.30
2022-07-25T19:09:57.081Z,4.60
2022-07-25T19:12:26.031Z,9.50
2022-07-25T19:14:54.061Z,12.40
2022-07-25T19:17:20.573Z,7.90
2022-07-25T19:19:47.078Z,12.30
2022-07-25T19:22:13.548Z,8.70
2022-07-25T19:24:40.120Z,11.50
2022-07-25T19:27:06.668Z,13.40
2022-07-25T19:29:33.479Z,16.20
2022-07-25T19:32:00.014Z,14.40
2022-07-25T19:34:29.582Z,16.60
2022-07-25T19:36:56.314Z,16.20
2022-07-25T19:39:23.961Z,24.80
2022-07-25T19:41:53.651Z,20.70
2022-07-25T19:44:23.257Z,23.60
2022-07-25T19:46:49.932Z,28.90
2022-07-25T19:49:16.660Z,32.50
2022-07-25T19:51:43.294Z,32.60
2022-07-25T19:54:10.740Z,40.00
2022-07-25T19:56:37.727Z,31.20
2022-07-25T19:59:06.113Z,38.80
2022-07-25T20:01:36.226Z,36.00
2022-07-25T20:04:05.474Z,37.10
2022-07-25T20:06:36.300Z,24.00
2022-07-25T20:09:03.900Z,41.50
2022-07-25T20:11:30.747Z,35.60
2022-07-25T20:13:57.406Z,53.70
2022-07-25T20:16:24.148Z,46.30
2022-07-25T20:18:51.201Z,47.40
2022-07-25T20:21:18.019Z,41.30
2022-07-25T20:23:47.556Z,34.00
2022-07-25T20:26:14.900Z,30.80
2022-07-25T20:28:41.777Z,22.30
2022-07-25T20:31:09.205Z,25.40
2022-07-25T20:33:36.226Z,20.00
2022-07-25T20:36:03.852Z,16.80
2022-07-25T20:38:32.005Z,16.80
2022-07-25T20:40:59.948Z,19.40
2022-07-25T20:43:27.939Z,17.60
2022-07-25T20:45:54.680Z,26.70
2022-07-25T20:48:21.215Z,15.30
2022-07-25T20:50:48.005Z,19.80
2022-07-25T20:53:14.628Z,14.10
2022-07-25T20:55:41.194Z,19.70
2022-07-25T20:58:07.674Z,14.60
2022-07-25T21:00:34.440Z,14.00
2022-07-25T21:03:02.633Z,14.00
2022-07-25T21:05:29.055Z,11.40
2022-07-25T21:07:56.287Z,11.50
2022-07-25T21:10:23.244Z,9.50
2022-07-25T21:12:49.744Z,12.70
2022-07-25T21:15:16.252Z,16.10
2022-07-25T21:17:43.521Z,10.50
2022-07-25T21:20:13.409Z,14.60
2022-07-25T21:22:40.958Z,9.00
2022-07-25T21:25:08.884Z,14.00
2022-07-25T21:27:36.619Z,8.00
2022-07-25T21:30:05.228Z,10.10
2022-07-25T21:32:32.007Z,9.60
2022-07-25T21:34:59.189Z,8.60
2022-07-25T21:37:25.947Z,6.30
2022-07-25T21:39:52.596Z,9.40
2022-07-25T21:42:19.144Z,10.60
2022-07-25T21:44:45.640Z,10.30
2022-07-25T21:47:12.185Z,7.30
2022-07-25T21:49:57.399Z,8.70
2022-07-25T21:52:29.829Z,7.50
2022-07-25T21:55:04.741Z,8.90
2022-07-25T21:57:31.431Z,7.30
2022-07-25T21:59:58.060Z,8.30
2022-07-25T22:02:25.075Z,9.20
2022-07-25T22:04:51.583Z,10.30
2022-07-25T22:07:19.091Z,8.30
2022-07-25T22:09:45.508Z,6.80
2022-07-25T22:12:12.094Z,7.90
2022-07-25T22:14:38.652Z,8.90
2022-07-25T22:17:05.267Z,8.50
2022-07-25T22:19:32.218Z,11.20
2022-07-25T22:21:58.763Z,9.10
2022-07-25T22:24:25.261Z,8.40
2022-07-25T22:26:51.637Z,7.20
2022-07-25T22:29:18.473Z,8.20
2022-07-25T22:31:45.040Z,7.80
2022-07-25T22:34:11.951Z,8.90
2022-07-25T22:36:38.385Z,9.80
2022-07-25T22:39:05.244Z,9.80
2022-07-25T22:41:32.029Z,9.80
2022-07-25T22:44:00.078Z,9.70
2022-07-25T22:46:31.008Z,12.30
2022-07-25T22:48:58.449Z,10.90
2022-07-25T22:51:25.971Z,10.70
2022-07-25T22:53:53.211Z,9.80
2022-07-25T22:56:20.186Z,11.40
2022-07-25T22:58:47.023Z,9.20
2022-07-25T23:01:17.140Z,13.00
2022-07-25T23:03:43.774Z,9.30
2022-07-25T23:06:10.940Z,9.40
2022-07-25T23:08:37.480Z,10.00
2022-07-25T23:11:05.521Z,13.30
2022-07-25T23:13:32.946Z,14.40
2022-07-25T23:15:59.584Z,10.90
2022-07-25T23:18:26.088Z,16.40
2022-07-25T23:20:52.586Z,14.70
2022-07-25T23:23:20.397Z,15.70
2022-07-25T23:25:46.925Z,15.20
2022-07-25T23:28:13.314Z,14.80
2022-07-25T23:30:40.698Z,13.00
2022-07-25T23:33:08.177Z,17.30
2022-07-25T23:35:34.743Z,11.90
2022-07-25T23:38:01.494Z,16.30
2022-07-25T23:40:27.908Z,17.10
2022-07-25T23:42:54.357Z,19.90
2022-07-25T23:45:22.143Z,18.50
2022-07-25T23:47:52.047Z,13.50
2022-07-25T23:50:19.601Z,15.90
2022-07-25T23:52:45.994Z,12.90
2022-07-25T23:55:12.493Z,10.50
2022-07-25T23:57:39.107Z,6.00
